sensor_id;sensor_type;location;lat;lon;timestamp;P1;durP1;ratioP1;P2;durP2;ratioP2
9898;SDS011;4988;49.238;6.698;2023-09-19T00:00:20;6.47;;;3.13;;
9898;SDS011;4988;49.238;6.698;2023-09-19T00:02:54;10.07;;;3.60;;
9898;SDS011;4988;49.238;6.698;2023-09-19T00:05:25;4.87;;;3.63;;
9898;SDS011;4988;49.238;6.698;2023-09-19T00:07:53;7.67;;;3.60;;
9898;SDS011;4988;49.238;6.698;2023-09-19T00:10:20;7.70;;;3.10;;
9898;SDS011;4988;49.238;6.698;2023-09-19T00:12:56;8.53;;;3.77;;
9898;SDS011;4988;49.238;6.698;2023-09-19T00:15:23;6.10;;;3.20;;
9898;SDS011;4988;49.238;6.698;2023-09-19T00:17:53;7.57;;;2.90;;
9898;SDS011;4988;49.238;6.698;2023-09-19T00:20:20;7.30;;;3.23;;
9898;SDS011;4988;49.238;6.698;2023-09-19T00:22:48;7.07;;;3.30;;
9898;SDS011;4988;49.238;6.698;2023-09-19T00:25:16;6.10;;;3.33;;
9898;SDS011;4988;49.238;6.698;2023-09-19T00:27:42;7.27;;;3.43;;
9898;SDS011;4988;49.238;6.698;2023-09-19T00:30:11;9.07;;;3.67;;
9898;SDS011;4988;49.238;6.698;2023-09-19T00:32:47;8.20;;;3.50;;
9898;SDS011;4988;49.238;6.698;2023-09-19T00:35:13;6.50;;;3.57;;
9898;SDS011;4988;49.238;6.698;2023-09-19T00:37:40;5.53;;;3.23;;
9898;SDS011;4988;49.238;6.698;2023-09-19T00:40:06;7.50;;;3.40;;
9898;SDS011;4988;49.238;6.698;2023-09-19T00:42:41;5.90;;;3.50;;
9898;SDS011;4988;49.238;6.698;2023-09-19T00:45:10;7.90;;;4.20;;
9898;SDS011;4988;49.238;6.698;2023-09-19T00:47:40;6.03;;;3.10;;
9898;SDS011;4988;49.238;6.698;2023-09-19T00:50:11;7.93;;;3.63;;
9898;SDS011;4988;49.238;6.698;2023-09-19T00:52:39;8.83;;;3.30;;
9898;SDS011;4988;49.238;6.698;2023-09-19T00:55:10;9.17;;;3.50;;
9898;SDS011;4988;49.238;6.698;2023-09-19T00:57:39;8.80;;;3.60;;
9898;SDS011;4988;49.238;6.698;2023-09-19T01:00:08;8.73;;;3.50;;
9898;SDS011;4988;49.238;6.698;2023-09-19T01:02:40;10.53;;;3.50;;
9898;SDS011;4988;49.238;6.698;2023-09-19T01:05:07;8.43;;;3.30;;
9898;SDS011;4988;49.238;6.698;2023-09-19T01:07:33;8.20;;;3.67;;
9898;SDS011;4988;49.238;6.698;2023-09-19T01:10:04;5.80;;;3.77;;
9898;SDS011;4988;49.238;6.698;2023-09-19T01:15:19;7.80;;;3.77;;
9898;SDS011;4988;49.238;6.698;2023-09-19T01:32:10;7.17;;;4.17;;
9898;SDS011;4988;49.238;6.698;2023-09-19T01:34:43;11.47;;;4.50;;
9898;SDS011;4988;49.238;6.698;2023-09-19T01:37:11;8.47;;;4.20;;
9898;SDS011;4988;49.238;6.698;2023-09-19T01:39:36;8.83;;;4.60;;
9898;SDS011;4988;49.238;6.698;2023-09-19T01:45:03;11.07;;;4.60;;
9898;SDS011;4988;49.238;6.698;2023-09-19T01:47:38;11.83;;;4.53;;
9898;SDS011;4988;49.238;6.698;2023-09-19T01:50:17;10.77;;;5.40;;
9898;SDS011;4988;49.238;6.698;2023-09-19T01:52:57;14.40;;;4.80;;
9898;SDS011;4988;49.238;6.698;2023-09-19T01:55:29;9.73;;;4.97;;
9898;SDS011;4988;49.238;6.698;2023-09-19T01:58:06;9.90;;;4.63;;
9898;SDS011;4988;49.238;6.698;2023-09-19T02:00:36;9.33;;;4.60;;
9898;SDS011;4988;49.238;6.698;2023-09-19T02:03:02;6.10;;;3.93;;
9898;SDS011;4988;49.238;6.698;2023-09-19T02:05:28;14.33;;;4.10;;
9898;SDS011;4988;49.238;6.698;2023-09-19T02:07:54;10.87;;;4.80;;
9898;SDS011;4988;49.238;6.698;2023-09-19T02:10:20;14.03;;;4.33;;
9898;SDS011;4988;49.238;6.698;2023-09-19T02:12:46;11.07;;;4.40;;
9898;SDS011;4988;49.238;6.698;2023-09-19T02:15:11;11.20;;;4.47;;
9898;SDS011;4988;49.238;6.698;2023-09-19T02:17:37;11.63;;;4.50;;
9898;SDS011;4988;49.238;6.698;2023-09-19T02:20:03;7.83;;;4.07;;
9898;SDS011;4988;49.238;6.698;2023-09-19T02:22:35;9.67;;;3.83;;
9898;SDS011;4988;49.238;6.698;2023-09-19T02:25:01;10.97;;;4.43;;
9898;SDS011;4988;49.238;6.698;2023-09-19T02:27:30;10.83;;;3.83;;
9898;SDS011;4988;49.238;6.698;2023-09-19T02:29:55;6.67;;;3.83;;
9898;SDS011;4988;49.238;6.698;2023-09-19T02:32:21;11.53;;;4.20;;
9898;SDS011;4988;49.238;6.698;2023-09-19T02:34:46;8.07;;;3.50;;
9898;SDS011;4988;49.238;6.698;2023-09-19T02:37:12;7.73;;;3.50;;
9898;SDS011;4988;49.238;6.698;2023-09-19T02:39:38;11.43;;;3.60;;
9898;SDS011;4988;49.238;6.698;2023-09-19T02:42:04;11.57;;;3.50;;
9898;SDS011;4988;49.238;6.698;2023-09-19T02:44:30;8.53;;;3.90;;
9898;SDS011;4988;49.238;6.698;2023-09-19T02:46:55;9.17;;;3.40;;
9898;SDS011;4988;49.238;6.698;2023-09-19T02:49:22;8.03;;;3.90;;
9898;SDS011;4988;49.238;6.698;2023-09-19T02:51:48;7.60;;;3.60;;
9898;SDS011;4988;49.238;6.698;2023-09-19T02:54:13;8.60;;;3.63;;
9898;SDS011;4988;49.238;6.698;2023-09-19T02:56:40;9.63;;;3.53;;
9898;SDS011;4988;49.238;6.698;2023-09-19T02:59:06;10.93;;;3.60;;
9898;SDS011;4988;49.238;6.698;2023-09-19T03:01:32;13.73;;;3.70;;
9898;SDS011;4988;49.238;6.698;2023-09-19T03:03:58;10.80;;;3.53;;
9898;SDS011;4988;49.238;6.698;2023-09-19T03:06:24;8.87;;;3.40;;
9898;SDS011;4988;49.238;6.698;2023-09-19T03:08:49;7.70;;;3.17;;
9898;SDS011;4988;49.238;6.698;2023-09-19T03:11:16;9.10;;;3.30;;
9898;SDS011;4988;49.238;6.698;2023-09-19T03:13:46;6.53;;;3.30;;
9898;SDS011;4988;49.238;6.698;2023-09-19T03:16:15;5.90;;;2.83;;
9898;SDS011;4988;49.238;6.698;2023-09-19T03:18:40;6.33;;;2.97;;
9898;SDS011;4988;49.238;6.698;2023-09-19T03:21:05;9.00;;;3.20;;
9898;SDS011;4988;49.238;6.698;2023-09-19T03:23:31;8.63;;;3.33;;
9898;SDS011;4988;49.238;6.698;2023-09-19T03:25:56;6.73;;;3.37;;
9898;SDS011;4988;49.238;6.698;2023-09-19T03:28:23;5.70;;;3.33;;
9898;SDS011;4988;49.238;6.698;2023-09-19T03:31:02;8.53;;;3.53;;
9898;SDS011;4988;49.238;6.698;2023-09-19T03:33:28;7.10;;;3.50;;
9898;SDS011;4988;49.238;6.698;2023-09-19T03:35:56;8.50;;;3.60;;
9898;SDS011;4988;49.238;6.698;2023-09-19T03:38:23;9.43;;;3.50;;
9898;SDS011;4988;49.238;6.698;2023-09-19T03:40:48;8.17;;;3.53;;
9898;SDS011;4988;49.238;6.698;2023-09-19T03:43:14;7.47;;;3.70;;
9898;SDS011;4988;49.238;6.698;2023-09-19T03:45:39;9.47;;;3.33;;
9898;SDS011;4988;49.238;6.698;2023-09-19T03:48:08;9.20;;;3.60;;
9898;SDS011;4988;49.238;6.698;2023-09-19T03:50:34;6.50;;;4.00;;
9898;SDS011;4988;49.238;6.698;2023-09-19T03:52:59;12.23;;;3.97;;
9898;SDS011;4988;49.238;6.698;2023-09-19T03:55:25;10.07;;;4.00;;
9898;SDS011;4988;49.238;6.698;2023-09-19T03:57:50;10.60;;;3.70;;
9898;SDS011;4988;49.238;6.698;2023-09-19T04:00:15;10.60;;;3.70;;
9898;SDS011;4988;49.238;6.698;2023-09-19T04:02:43;9.27;;;3.90;;
9898;SDS011;4988;49.238;6.698;2023-09-19T04:05:11;10.17;;;3.90;;
9898;SDS011;4988;49.238;6.698;2023-09-19T04:07:36;9.80;;;3.50;;
9898;SDS011;4988;49.238;6.698;2023-09-19T04:10:01;11.80;;;4.83;;
9898;SDS011;4988;49.238;6.698;2023-09-19T04:12:28;8.13;;;3.30;;
9898;SDS011;4988;49.238;6.698;2023-09-19T04:14:53;10.43;;;3.77;;
9898;SDS011;4988;49.238;6.698;2023-09-19T04:17:18;7.97;;;3.17;;
9898;SDS011;4988;49.238;6.698;2023-09-19T04:19:44;13.23;;;3.60;;
9898;SDS011;4988;49.238;6.698;2023-09-19T04:22:10;10.20;;;3.13;;
9898;SDS011;4988;49.238;6.698;2023-09-19T04:24:36;9.27;;;3.20;;
9898;SDS011;4988;49.238;6.698;2023-09-19T04:27:02;7.87;;;3.43;;
9898;SDS011;4988;49.238;6.698;2023-09-19T04:29:28;7.40;;;3.17;;
9898;SDS011;4988;49.238;6.698;2023-09-19T04:31:54;9.50;;;3.40;;
9898;SDS011;4988;49.238;6.698;2023-09-19T04:34:19;9.83;;;3.33;;
9898;SDS011;4988;49.238;6.698;2023-09-19T04:36:44;9.50;;;3.30;;
9898;SDS011;4988;49.238;6.698;2023-09-19T04:39:10;6.47;;;3.27;;
9898;SDS011;4988;49.238;6.698;2023-09-19T04:41:38;7.03;;;3.23;;
9898;SDS011;4988;49.238;6.698;2023-09-19T04:44:07;11.83;;;3.40;;
9898;SDS011;4988;49.238;6.698;2023-09-19T04:46:32;8.67;;;3.13;;
9898;SDS011;4988;49.238;6.698;2023-09-19T04:49:01;9.50;;;3.20;;
9898;SDS011;4988;49.238;6.698;2023-09-19T04:51:27;7.13;;;2.90;;
9898;SDS011;4988;49.238;6.698;2023-09-19T04:53:57;7.97;;;3.10;;
9898;SDS011;4988;49.238;6.698;2023-09-19T04:56:23;9.97;;;3.13;;
9898;SDS011;4988;49.238;6.698;2023-09-19T04:58:49;11.33;;;3.40;;
9898;SDS011;4988;49.238;6.698;2023-09-19T05:01:14;9.33;;;3.33;;
9898;SDS011;4988;49.238;6.698;2023-09-19T05:03:40;8.07;;;3.20;;
9898;SDS011;4988;49.238;6.698;2023-09-19T05:06:05;8.20;;;3.20;;
9898;SDS011;4988;49.238;6.698;2023-09-19T05:08:31;12.37;;;3.20;;
9898;SDS011;4988;49.238;6.698;2023-09-19T05:10:56;13.67;;;4.53;;
9898;SDS011;4988;49.238;6.698;2023-09-19T05:13:21;12.87;;;3.47;;
9898;SDS011;4988;49.238;6.698;2023-09-19T05:15:48;7.57;;;3.33;;
9898;SDS011;4988;49.238;6.698;2023-09-19T05:18:15;9.80;;;3.70;;
9898;SDS011;4988;49.238;6.698;2023-09-19T05:20:40;10.07;;;3.30;;
9898;SDS011;4988;49.238;6.698;2023-09-19T05:23:07;7.93;;;3.17;;
9898;SDS011;4988;49.238;6.698;2023-09-19T05:25:34;7.50;;;3.40;;
9898;SDS011;4988;49.238;6.698;2023-09-19T05:28:03;13.27;;;4.07;;
9898;SDS011;4988;49.238;6.698;2023-09-19T05:30:32;7.30;;;3.13;;
9898;SDS011;4988;49.238;6.698;2023-09-19T05:32:58;9.57;;;3.60;;
9898;SDS011;4988;49.238;6.698;2023-09-19T05:35:24;8.83;;;3.50;;
9898;SDS011;4988;49.238;6.698;2023-09-19T05:37:50;11.00;;;3.57;;
9898;SDS011;4988;49.238;6.698;2023-09-19T05:40:19;8.07;;;3.40;;
9898;SDS011;4988;49.238;6.698;2023-09-19T05:42:44;7.20;;;3.40;;
9898;SDS011;4988;49.238;6.698;2023-09-19T05:45:10;11.13;;;3.30;;
9898;SDS011;4988;49.238;6.698;2023-09-19T05:47:42;8.93;;;3.43;;
9898;SDS011;4988;49.238;6.698;2023-09-19T05:50:09;12.93;;;3.50;;
9898;SDS011;4988;49.238;6.698;2023-09-19T05:52:36;8.37;;;3.80;;
9898;SDS011;4988;49.238;6.698;2023-09-19T05:55:05;8.57;;;3.47;;
9898;SDS011;4988;49.238;6.698;2023-09-19T05:57:33;11.77;;;3.23;;
9898;SDS011;4988;49.238;6.698;2023-09-19T06:00:04;10.97;;;3.40;;
9898;SDS011;4988;49.238;6.698;2023-09-19T06:02:34;7.73;;;3.37;;
9898;SDS011;4988;49.238;6.698;2023-09-19T06:05:00;11.23;;;4.10;;
9898;SDS011;4988;49.238;6.698;2023-09-19T06:07:26;13.30;;;3.63;;
9898;SDS011;4988;49.238;6.698;2023-09-19T06:09:53;13.33;;;3.70;;
9898;SDS011;4988;49.238;6.698;2023-09-19T06:12:21;10.13;;;3.27;;
9898;SDS011;4988;49.238;6.698;2023-09-19T06:14:46;8.17;;;3.03;;
9898;SDS011;4988;49.238;6.698;2023-09-19T06:17:13;9.67;;;3.10;;
9898;SDS011;4988;49.238;6.698;2023-09-19T06:19:39;9.00;;;3.03;;
9898;SDS011;4988;49.238;6.698;2023-09-19T06:22:04;10.20;;;3.20;;
9898;SDS011;4988;49.238;6.698;2023-09-19T06:24:29;7.60;;;3.30;;
9898;SDS011;4988;49.238;6.698;2023-09-19T06:26:55;9.50;;;3.13;;
9898;SDS011;4988;49.238;6.698;2023-09-19T06:29:21;11.50;;;3.10;;
9898;SDS011;4988;49.238;6.698;2023-09-19T06:31:48;8.87;;;2.93;;
9898;SDS011;4988;49.238;6.698;2023-09-19T06:34:13;8.53;;;3.30;;
9898;SDS011;4988;49.238;6.698;2023-09-19T06:36:43;7.77;;;3.30;;
9898;SDS011;4988;49.238;6.698;2023-09-19T06:39:09;11.33;;;3.17;;
9898;SDS011;4988;49.238;6.698;2023-09-19T06:41:36;12.93;;;4.17;;
9898;SDS011;4988;49.238;6.698;2023-09-19T06:44:03;8.80;;;3.17;;
9898;SDS011;4988;49.238;6.698;2023-09-19T06:46:30;11.97;;;3.37;;
9898;SDS011;4988;49.238;6.698;2023-09-19T06:48:58;10.47;;;3.20;;
9898;SDS011;4988;49.238;6.698;2023-09-19T06:51:23;13.90;;;3.60;;
9898;SDS011;4988;49.238;6.698;2023-09-19T06:53:48;14.10;;;3.30;;
9898;SDS011;4988;49.238;6.698;2023-09-19T06:56:14;13.23;;;3.43;;
9898;SDS011;4988;49.238;6.698;2023-09-19T06:58:39;9.13;;;3.43;;
9898;SDS011;4988;49.238;6.698;2023-09-19T07:01:04;7.73;;;3.33;;
9898;SDS011;4988;49.238;6.698;2023-09-19T07:03:30;7.03;;;3.00;;
9898;SDS011;4988;49.238;6.698;2023-09-19T07:05:55;11.43;;;2.90;;
9898;SDS011;4988;49.238;6.698;2023-09-19T07:08:21;8.03;;;3.10;;
9898;SDS011;4988;49.238;6.698;2023-09-19T07:10:46;12.53;;;3.17;;
9898;SDS011;4988;49.238;6.698;2023-09-19T07:13:19;9.30;;;3.00;;
9898;SDS011;4988;49.238;6.698;2023-09-19T07:15:44;9.57;;;3.00;;
9898;SDS011;4988;49.238;6.698;2023-09-19T07:18:15;8.53;;;2.73;;
9898;SDS011;4988;49.238;6.698;2023-09-19T07:20:41;11.73;;;3.73;;
9898;SDS011;4988;49.238;6.698;2023-09-19T07:23:10;9.87;;;3.60;;
9898;SDS011;4988;49.238;6.698;2023-09-19T07:25:40;8.20;;;3.30;;
9898;SDS011;4988;49.238;6.698;2023-09-19T07:28:05;8.77;;;3.00;;
9898;SDS011;4988;49.238;6.698;2023-09-19T07:30:30;10.40;;;2.97;;
9898;SDS011;4988;49.238;6.698;2023-09-19T07:32:56;10.03;;;3.20;;
9898;SDS011;4988;49.238;6.698;2023-09-19T07:35:21;7.23;;;2.73;;
9898;SDS011;4988;49.238;6.698;2023-09-19T07:37:47;8.50;;;3.07;;
9898;SDS011;4988;49.238;6.698;2023-09-19T07:40:16;9.23;;;2.60;;
9898;SDS011;4988;49.238;6.698;2023-09-19T07:42:42;13.20;;;3.00;;
9898;SDS011;4988;49.238;6.698;2023-09-19T07:45:09;7.50;;;3.13;;
9898;SDS011;4988;49.238;6.698;2023-09-19T07:47:39;12.03;;;2.60;;
9898;SDS011;4988;49.238;6.698;2023-09-19T07:50:10;15.00;;;2.97;;
9898;SDS011;4988;49.238;6.698;2023-09-19T07:52:36;10.57;;;2.60;;
9898;SDS011;4988;49.238;6.698;2023-09-19T07:55:04;7.97;;;2.90;;
9898;SDS011;4988;49.238;6.698;2023-09-19T07:57:33;11.37;;;3.07;;
9898;SDS011;4988;49.238;6.698;2023-09-19T07:59:59;10.53;;;2.50;;
9898;SDS011;4988;49.238;6.698;2023-09-19T08:02:24;7.73;;;2.63;;
9898;SDS011;4988;49.238;6.698;2023-09-19T08:04:50;12.57;;;2.90;;
9898;SDS011;4988;49.238;6.698;2023-09-19T08:07:17;7.63;;;2.63;;
9898;SDS011;4988;49.238;6.698;2023-09-19T08:09:43;9.03;;;3.00;;
9898;SDS011;4988;49.238;6.698;2023-09-19T08:12:12;7.77;;;2.70;;
9898;SDS011;4988;49.238;6.698;2023-09-19T08:14:37;8.23;;;2.30;;
9898;SDS011;4988;49.238;6.698;2023-09-19T08:17:03;11.00;;;2.40;;
9898;SDS011;4988;49.238;6.698;2023-09-19T08:19:30;11.53;;;3.40;;
9898;SDS011;4988;49.238;6.698;2023-09-19T08:21:59;9.37;;;2.60;;
9898;SDS011;4988;49.238;6.698;2023-09-19T08:24:26;15.50;;;2.83;;
9898;SDS011;4988;49.238;6.698;2023-09-19T08:26:53;10.63;;;2.47;;
9898;SDS011;4988;49.238;6.698;2023-09-19T08:29:23;9.33;;;2.60;;
9898;SDS011;4988;49.238;6.698;2023-09-19T08:31:53;12.30;;;2.73;;
9898;SDS011;4988;49.238;6.698;2023-09-19T08:34:19;12.20;;;2.90;;
9898;SDS011;4988;49.238;6.698;2023-09-19T08:36:46;11.10;;;2.70;;
9898;SDS011;4988;49.238;6.698;2023-09-19T08:39:11;10.53;;;2.67;;
9898;SDS011;4988;49.238;6.698;2023-09-19T08:41:36;8.33;;;2.37;;
9898;SDS011;4988;49.238;6.698;2023-09-19T08:44:02;8.53;;;2.53;;
9898;SDS011;4988;49.238;6.698;2023-09-19T08:46:28;14.43;;;2.80;;
9898;SDS011;4988;49.238;6.698;2023-09-19T08:49:07;11.37;;;2.63;;
9898;SDS011;4988;49.238;6.698;2023-09-19T08:51:42;11.37;;;2.40;;
9898;SDS011;4988;49.238;6.698;2023-09-19T08:54:27;7.63;;;2.50;;
9898;SDS011;4988;49.238;6.698;2023-09-19T08:56:56;13.17;;;2.60;;
9898;SDS011;4988;49.238;6.698;2023-09-19T08:59:30;12.77;;;3.30;;
9898;SDS011;4988;49.238;6.698;2023-09-19T09:01:56;9.20;;;2.27;;
9898;SDS011;4988;49.238;6.698;2023-09-19T09:04:22;15.10;;;2.40;;
9898;SDS011;4988;49.238;6.698;2023-09-19T09:06:50;9.27;;;2.43;;
9898;SDS011;4988;49.238;6.698;2023-09-19T09:09:19;13.27;;;3.00;;
9898;SDS011;4988;49.238;6.698;2023-09-19T09:11:45;8.23;;;2.43;;
9898;SDS011;4988;49.238;6.698;2023-09-19T09:14:13;7.80;;;2.30;;
9898;SDS011;4988;49.238;6.698;2023-09-19T09:16:38;6.97;;;2.20;;
9898;SDS011;4988;49.238;6.698;2023-09-19T09:19:04;6.60;;;2.30;;
9898;SDS011;4988;49.238;6.698;2023-09-19T09:21:29;8.90;;;2.20;;
9898;SDS011;4988;49.238;6.698;2023-09-19T09:24:00;7.10;;;2.20;;
9898;SDS011;4988;49.238;6.698;2023-09-19T09:26:53;9.87;;;2.23;;
9898;SDS011;4988;49.238;6.698;2023-09-19T09:29:38;5.20;;;2.10;;
9898;SDS011;4988;49.238;6.698;2023-09-19T09:32:19;10.10;;;2.30;;
9898;SDS011;4988;49.238;6.698;2023-09-19T09:34:52;6.17;;;2.03;;
9898;SDS011;4988;49.238;6.698;2023-09-19T09:37:20;7.97;;;2.50;;
9898;SDS011;4988;49.238;6.698;2023-09-19T09:39:53;7.57;;;2.10;;
9898;SDS011;4988;49.238;6.698;2023-09-19T09:42:39;8.13;;;2.10;;
9898;SDS011;4988;49.238;6.698;2023-09-19T09:45:12;8.87;;;2.37;;
9898;SDS011;4988;49.238;6.698;2023-09-19T09:48:01;4.73;;;2.20;;
9898;SDS011;4988;49.238;6.698;2023-09-19T09:50:39;7.50;;;1.90;;
9898;SDS011;4988;49.238;6.698;2023-09-19T09:53:23;7.67;;;2.50;;
9898;SDS011;4988;49.238;6.698;2023-09-19T09:56:07;5.37;;;2.10;;
9898;SDS011;4988;49.238;6.698;2023-09-19T09:58:50;10.13;;;2.40;;
9898;SDS011;4988;49.238;6.698;2023-09-19T10:01:20;8.23;;;2.23;;
9898;SDS011;4988;49.238;6.698;2023-09-19T10:03:46;6.17;;;1.87;;
9898;SDS011;4988;49.238;6.698;2023-09-19T10:06:18;4.93;;;2.03;;
9898;SDS011;4988;49.238;6.698;2023-09-19T10:12:00;8.30;;;2.07;;
9898;SDS011;4988;49.238;6.698;2023-09-19T10:14:30;9.57;;;2.30;;
9898;SDS011;4988;49.238;6.698;2023-09-19T10:17:00;5.83;;;2.10;;
9898;SDS011;4988;49.238;6.698;2023-09-19T10:22:22;7.37;;;1.97;;
9898;SDS011;4988;49.238;6.698;2023-09-19T10:24:50;6.97;;;2.00;;
9898;SDS011;4988;49.238;6.698;2023-09-19T10:27:21;4.93;;;1.90;;
9898;SDS011;4988;49.238;6.698;2023-09-19T10:29:50;8.77;;;2.00;;
9898;SDS011;4988;49.238;6.698;2023-09-19T10:32:19;7.50;;;1.90;;
9898;SDS011;4988;49.238;6.698;2023-09-19T10:34:47;8.50;;;2.07;;
9898;SDS011;4988;49.238;6.698;2023-09-19T10:37:13;5.70;;;1.87;;
9898;SDS011;4988;49.238;6.698;2023-09-19T10:39:41;6.37;;;1.80;;
9898;SDS011;4988;49.238;6.698;2023-09-19T10:42:11;6.43;;;2.10;;
9898;SDS011;4988;49.238;6.698;2023-09-19T10:44:42;2.30;;;1.40;;
9898;SDS011;4988;49.238;6.698;2023-09-19T10:47:10;4.63;;;1.70;;
9898;SDS011;4988;49.238;6.698;2023-09-19T10:49:42;4.87;;;1.63;;
9898;SDS011;4988;49.238;6.698;2023-09-19T10:52:11;5.60;;;1.97;;
9898;SDS011;4988;49.238;6.698;2023-09-19T10:54:44;4.37;;;1.73;;
9898;SDS011;4988;49.238;6.698;2023-09-19T10:57:18;5.20;;;1.80;;
9898;SDS011;4988;49.238;6.698;2023-09-19T11:05:40;4.70;;;1.63;;
9898;SDS011;4988;49.238;6.698;2023-09-19T11:08:06;3.80;;;1.60;;
9898;SDS011;4988;49.238;6.698;2023-09-19T11:10:48;5.07;;;1.60;;
9898;SDS011;4988;49.238;6.698;2023-09-19T11:13:31;4.83;;;1.47;;
9898;SDS011;4988;49.238;6.698;2023-09-19T11:27:12;6.30;;;1.73;;
9898;SDS011;4988;49.238;6.698;2023-09-19T11:29:39;7.93;;;1.80;;
9898;SDS011;4988;49.238;6.698;2023-09-19T11:32:05;4.50;;;1.77;;
9898;SDS011;4988;49.238;6.698;2023-09-19T11:39:40;4.23;;;1.60;;
9898;SDS011;4988;49.238;6.698;2023-09-19T11:43:08;7.00;;;1.90;;
9898;SDS011;4988;49.238;6.698;2023-09-19T11:45:06;6.10;;;1.90;;
9898;SDS011;4988;49.238;6.698;2023-09-19T11:47:31;4.20;;;1.50;;
9898;SDS011;4988;49.238;6.698;2023-09-19T11:50:00;4.30;;;1.50;;
9898;SDS011;4988;49.238;6.698;2023-09-19T11:52:26;5.63;;;1.60;;
9898;SDS011;4988;49.238;6.698;2023-09-19T11:54:59;3.77;;;1.70;;
9898;SDS011;4988;49.238;6.698;2023-09-19T11:57:26;4.13;;;1.70;;
9898;SDS011;4988;49.238;6.698;2023-09-19T11:59:55;3.70;;;1.40;;
9898;SDS011;4988;49.238;6.698;2023-09-19T12:02:29;6.33;;;1.97;;
9898;SDS011;4988;49.238;6.698;2023-09-19T12:05:07;5.07;;;1.70;;
9898;SDS011;4988;49.238;6.698;2023-09-19T12:07:41;5.10;;;1.70;;
9898;SDS011;4988;49.238;6.698;2023-09-19T12:10:12;4.30;;;1.70;;
9898;SDS011;4988;49.238;6.698;2023-09-19T12:12:46;5.53;;;1.90;;
9898;SDS011;4988;49.238;6.698;2023-09-19T12:15:14;5.10;;;1.50;;
9898;SDS011;4988;49.238;6.698;2023-09-19T12:17:40;4.27;;;1.53;;
9898;SDS011;4988;49.238;6.698;2023-09-19T12:20:07;4.20;;;1.80;;
9898;SDS011;4988;49.238;6.698;2023-09-19T12:22:44;6.20;;;1.87;;
9898;SDS011;4988;49.238;6.698;2023-09-19T12:25:12;3.03;;;1.50;;
9898;SDS011;4988;49.238;6.698;2023-09-19T12:27:44;3.97;;;1.80;;
9898;SDS011;4988;49.238;6.698;2023-09-19T12:30:18;4.20;;;1.40;;
9898;SDS011;4988;49.238;6.698;2023-09-19T12:32:45;3.43;;;1.50;;
9898;SDS011;4988;49.238;6.698;2023-09-19T12:35:29;6.97;;;1.77;;
9898;SDS011;4988;49.238;6.698;2023-09-19T12:37:56;8.13;;;1.60;;
9898;SDS011;4988;49.238;6.698;2023-09-19T12:40:22;5.93;;;1.60;;
9898;SDS011;4988;49.238;6.698;2023-09-19T12:42:52;4.90;;;1.80;;
9898;SDS011;4988;49.238;6.698;2023-09-19T12:45:20;2.17;;;1.33;;
9898;SDS011;4988;49.238;6.698;2023-09-19T12:51:00;3.57;;;1.50;;
9898;SDS011;4988;49.238;6.698;2023-09-19T12:53:31;3.60;;;1.50;;
9898;SDS011;4988;49.238;6.698;2023-09-19T12:55:59;4.90;;;1.40;;
9898;SDS011;4988;49.238;6.698;2023-09-19T12:58:25;5.37;;;1.60;;
9898;SDS011;4988;49.238;6.698;2023-09-19T13:00:50;3.70;;;1.40;;
9898;SDS011;4988;49.238;6.698;2023-09-19T13:03:28;9.10;;;1.73;;
9898;SDS011;4988;49.238;6.698;2023-09-19T13:08:25;2.03;;;1.37;;
9898;SDS011;4988;49.238;6.698;2023-09-19T13:11:01;4.37;;;1.80;;
9898;SDS011;4988;49.238;6.698;2023-09-19T13:13:26;5.63;;;1.90;;
9898;SDS011;4988;49.238;6.698;2023-09-19T13:15:53;5.83;;;1.53;;
9898;SDS011;4988;49.238;6.698;2023-09-19T13:18:18;4.87;;;1.40;;
9898;SDS011;4988;49.238;6.698;2023-09-19T13:21:04;4.90;;;2.00;;
9898;SDS011;4988;49.238;6.698;2023-09-19T13:23:31;3.10;;;1.40;;
9898;SDS011;4988;49.238;6.698;2023-09-19T13:25:56;3.87;;;1.60;;
9898;SDS011;4988;49.238;6.698;2023-09-19T13:28:22;4.47;;;1.30;;
9898;SDS011;4988;49.238;6.698;2023-09-19T13:30:47;3.73;;;1.07;;
9898;SDS011;4988;49.238;6.698;2023-09-19T13:33:13;2.63;;;1.40;;
9898;SDS011;4988;49.238;6.698;2023-09-19T13:35:44;3.43;;;1.37;;
9898;SDS011;4988;49.238;6.698;2023-09-19T13:38:09;5.27;;;1.30;;
9898;SDS011;4988;49.238;6.698;2023-09-19T13:40:36;2.53;;;1.40;;
9898;SDS011;4988;49.238;6.698;2023-09-19T13:43:04;7.83;;;1.50;;
9898;SDS011;4988;49.238;6.698;2023-09-19T13:45:31;5.97;;;1.20;;
9898;SDS011;4988;49.238;6.698;2023-09-19T13:47:57;3.87;;;1.70;;
9898;SDS011;4988;49.238;6.698;2023-09-19T13:50:24;5.70;;;1.43;;
9898;SDS011;4988;49.238;6.698;2023-09-19T13:52:50;7.73;;;1.40;;
9898;SDS011;4988;49.238;6.698;2023-09-19T13:55:19;3.00;;;1.63;;
9898;SDS011;4988;49.238;6.698;2023-09-19T13:57:50;5.20;;;1.40;;
9898;SDS011;4988;49.238;6.698;2023-09-19T14:00:17;3.30;;;1.20;;
9898;SDS011;4988;49.238;6.698;2023-09-19T14:02:43;3.10;;;1.40;;
9898;SDS011;4988;49.238;6.698;2023-09-19T14:05:11;5.53;;;1.47;;
9898;SDS011;4988;49.238;6.698;2023-09-19T14:07:40;3.27;;;1.70;;
9898;SDS011;4988;49.238;6.698;2023-09-19T14:10:06;3.20;;;1.40;;
9898;SDS011;4988;49.238;6.698;2023-09-19T14:12:35;6.07;;;1.37;;
9898;SDS011;4988;49.238;6.698;2023-09-19T14:15:02;2.17;;;1.20;;
9898;SDS011;4988;49.238;6.698;2023-09-19T14:17:28;6.63;;;1.30;;
9898;SDS011;4988;49.238;6.698;2023-09-19T14:19:53;5.20;;;1.30;;
9898;SDS011;4988;49.238;6.698;2023-09-19T14:22:18;3.83;;;1.63;;
9898;SDS011;4988;49.238;6.698;2023-09-19T14:24:44;4.03;;;1.83;;
9898;SDS011;4988;49.238;6.698;2023-09-19T14:27:10;2.83;;;1.40;;
9898;SDS011;4988;49.238;6.698;2023-09-19T14:29:36;3.97;;;1.77;;
9898;SDS011;4988;49.238;6.698;2023-09-19T14:32:01;4.63;;;1.50;;
9898;SDS011;4988;49.238;6.698;2023-09-19T14:34:27;3.30;;;1.50;;
9898;SDS011;4988;49.238;6.698;2023-09-19T14:36:53;4.00;;;1.50;;
9898;SDS011;4988;49.238;6.698;2023-09-19T14:39:19;3.17;;;1.43;;
9898;SDS011;4988;49.238;6.698;2023-09-19T14:41:45;2.53;;;1.50;;
9898;SDS011;4988;49.238;6.698;2023-09-19T14:44:10;4.87;;;1.30;;
9898;SDS011;4988;49.238;6.698;2023-09-19T14:46:36;4.53;;;1.33;;
9898;SDS011;4988;49.238;6.698;2023-09-19T14:49:01;3.77;;;1.30;;
9898;SDS011;4988;49.238;6.698;2023-09-19T14:51:29;2.77;;;1.40;;
9898;SDS011;4988;49.238;6.698;2023-09-19T14:53:55;4.00;;;1.10;;
9898;SDS011;4988;49.238;6.698;2023-09-19T14:56:21;2.13;;;1.13;;
9898;SDS011;4988;49.238;6.698;2023-09-19T14:58:48;1.50;;;1.10;;
9898;SDS011;4988;49.238;6.698;2023-09-19T15:01:14;3.03;;;1.03;;
9898;SDS011;4988;49.238;6.698;2023-09-19T15:03:40;1.20;;;1.10;;
9898;SDS011;4988;49.238;6.698;2023-09-19T15:06:07;3.27;;;1.40;;
9898;SDS011;4988;49.238;6.698;2023-09-19T15:08:35;1.97;;;1.10;;
9898;SDS011;4988;49.238;6.698;2023-09-19T15:11:03;2.77;;;1.30;;
9898;SDS011;4988;49.238;6.698;2023-09-19T15:13:30;3.13;;;1.40;;
9898;SDS011;4988;49.238;6.698;2023-09-19T15:16:03;4.07;;;1.20;;
9898;SDS011;4988;49.238;6.698;2023-09-19T15:18:34;2.87;;;1.40;;
9898;SDS011;4988;49.238;6.698;2023-09-19T15:21:02;2.13;;;1.10;;
9898;SDS011;4988;49.238;6.698;2023-09-19T15:23:31;2.13;;;1.20;;
9898;SDS011;4988;49.238;6.698;2023-09-19T15:26:00;5.37;;;1.30;;
9898;SDS011;4988;49.238;6.698;2023-09-19T15:28:26;2.50;;;1.30;;
9898;SDS011;4988;49.238;6.698;2023-09-19T15:30:57;3.00;;;1.20;;
9898;SDS011;4988;49.238;6.698;2023-09-19T15:33:32;3.17;;;1.40;;
9898;SDS011;4988;49.238;6.698;2023-09-19T15:36:02;2.90;;;1.30;;
9898;SDS011;4988;49.238;6.698;2023-09-19T15:38:32;3.10;;;1.23;;
9898;SDS011;4988;49.238;6.698;2023-09-19T15:41:19;4.30;;;1.23;;
9898;SDS011;4988;49.238;6.698;2023-09-19T15:43:45;1.87;;;1.27;;
9898;SDS011;4988;49.238;6.698;2023-09-19T15:46:11;2.60;;;1.20;;
9898;SDS011;4988;49.238;6.698;2023-09-19T15:48:36;3.20;;;1.20;;
9898;SDS011;4988;49.238;6.698;2023-09-19T15:51:05;2.73;;;1.20;;
9898;SDS011;4988;49.238;6.698;2023-09-19T15:53:41;1.97;;;1.40;;
9898;SDS011;4988;49.238;6.698;2023-09-19T15:56:11;3.40;;;1.30;;
9898;SDS011;4988;49.238;6.698;2023-09-19T15:58:38;2.97;;;1.40;;
9898;SDS011;4988;49.238;6.698;2023-09-19T16:01:06;1.60;;;1.20;;
9898;SDS011;4988;49.238;6.698;2023-09-19T16:03:36;1.70;;;1.30;;
9898;SDS011;4988;49.238;6.698;2023-09-19T16:06:02;2.87;;;1.10;;
9898;SDS011;4988;49.238;6.698;2023-09-19T16:08:33;3.73;;;1.50;;
9898;SDS011;4988;49.238;6.698;2023-09-19T16:10:59;3.47;;;1.13;;
9898;SDS011;4988;49.238;6.698;2023-09-19T16:13:25;3.67;;;1.60;;